Main page
METAR-TAF:

METAR-TAF

Airports :

Xi'an Xianyang International Airport

Xi'an, China

latitude: 34-26N, longitude: 108-45E, elevation: 479 m

Current weather observation

The report was made 26 minutes ago, at 23:00 UTC
Wind 2 kt from the West
Temperature -11°C
Humidity 78%
Pressure 1026 hPa
Visibility: 7000 m

METAR: ZLXY 212300Z 28001MPS 7000 NSC M11/M14 Q1026 NOSIG

Time: 07:26 (23:26 UTC)

Forecast

The report was made 8 hours and 9 minutes ago, at 15:17 UTC
Forecast valid from 21 at 18 UTC to 22 at 18 UTC
Wind 6 kt from the West/Southwest
Visibility: 3000 m
haze

TAF: ZLXY 211517Z 2118/2218 24003MPS 3000 HZ NSC TX09/2207Z TNM08/22Z

Weather observations and forecasts of more than 4000 airports (METAR and TAF reports).

The available stations are represented by yellow and red dots on the map.

Hover mouse over dot to see the name of the station.

Then click to see weather observations and forecasts.

To change the map : click on the green buttons with a black cross to zoom in, on the green button with a dash to zoom out, or on the green arrows for adjacent maps.


METAR-TAF: